Terminal Aerodrome Forecast
Issued by NWS Spokane, WA

Home | Current Version | Previous Version | Text Only | Print | Product List | Glossary On
Versions: 1 2 3 4 5 6 7 8 9 10 11 12
000
FTUS46 KOTX 201723
TAFEAT
TAF
KEAT 201723Z 2018/2118 31015G19KT P6SM FEW050 SCT200
     FM201900 30015G24KT P6SM SCT060 SCT200
     FM202300 30018G28KT P6SM FEW060
     FM210300 30015KT P6SM FEW200
     FM210900 31011KT P6SM SCT150
     FM211700 29006KT P6SM SCT150=

USA.gov is the U.S. government's official web portal to all federal, state and local government web resources and services.